Latest Weather Observations for Barimunya

IDW60801

Issued at 4:13 am WST Wednesday 24 October 2018 (issued every 10 minutes, with the page automatically refreshed every 10 minutes)

About weather observations | Map of weather stations | Latest weather observations for WA | Other Formats
Station Details ID: 505053 Name: BARIMUNYA Lat: -22.67 Lon: 119.16 Height: 629.17 m
Data from the previous 72 hours. | See also: Recent months for locations in Western Australia
Date/Time
WST
Temp
°C
App
Temp
°C
Dew
Point
°C
Rel
Hum
%
Delta-T
°C
Wind Press
QNH
hPa
Press
MSL
hPa
Rain since
9am
mm
Dir  Spd
km/h
Gust
km/h
Spd
kts
Gust
kts
24/04:00am 21.9 17.4 -6.8 14 11.7 WSW 9 11 5 6 1011.7 1007.5 0.0
24/03:30am 21.6 16.6 -8.0 13 11.7 WSW 11 13 6 7 1011.7 1007.5 0.0
24/03:00am 21.5 17.5 -8.0 13 11.7 W 6 9 3 5 1011.9 1007.7 0.0
24/02:30am 21.6 17.0 -8.0 13 11.7 W 9 13 5 7 1012.1 1007.9 0.0
24/02:00am 21.2 16.6 -8.3 13 11.6 W 9 11 5 6 1012.4 1008.1 0.0
24/01:30am 22.1 16.7 -8.6 12 12.1 W 13 15 7 8 1012.5 1008.3 0.0
24/01:00am 22.9 17.4 -9.1 11 12.6 W 13 13 7 7 1012.6 1008.4 0.0
24/12:30am 23.2 18.1 -8.9 11 12.7 WNW 11 13 6 7 1012.6 1008.4 0.0
24/12:00am 23.8 19.1 -9.6 10 13.1 W 9 11 5 6 1012.9 1008.7 0.0
 
Date/Time
WST
Temp
°C
App
Temp
°C
Dew
Point
°C
Rel
Hum
%
Delta-T
°C
Wind Press
QNH
hPa
Press
MSL
hPa
Rain since
9am
mm
Dir  Spd
km/h
Gust
km/h
Spd
kts
Gust
kts
23/11:30pm 24.8 19.6 -10.2 9 13.7 WNW 11 15 6 8 1013.0 1008.8 0.0
23/11:00pm 25.2 21.8 -9.9 9 13.9 W 2 6 1 3 1012.9 1008.7 0.0
23/10:30pm 25.8 22.0 -9.4 9 14.2 W 4 9 2 5 1013.0 1008.8 0.0
23/10:00pm 26.6 22.3 -8.8 9 14.5 W 7 11 4 6 1013.1 1008.9 0.0
23/09:30pm 26.8 23.5 -8.7 9 14.6 WNW 2 7 1 4 1013.0 1008.8 0.0
23/09:00pm 27.7 24.0 -8.0 9 15.0 WNW 4 7 2 4 1012.9 1008.7 0.0
23/08:30pm 27.7 23.5 -8.0 9 15.0 WNW 7 9 4 5 1012.9 1008.7 0.0
23/08:00pm 29.5 25.6 -6.7 9 15.8 WNW 6 7 3 4 1012.6 1008.4 0.0
23/07:30pm 31.5 27.0 -6.7 8 17.0 NW 9 15 5 8 1012.4 1008.1 0.0
23/07:00pm 31.0 26.5 -7.1 8 16.7 WNW 9 11 5 6 1011.9 1007.7 0.0
23/06:30pm 32.3 27.7 -7.8 7 17.6 NNW 9 13 5 7 1011.6 1007.4 0.0
23/06:00pm 34.2 29.7 -6.5 7 18.5 NW 9 13 5 7 1011.4 1007.2 0.0
23/05:30pm 35.3 29.2 -7.7 6 19.3 WNW 17 28 9 15 1011.3 1007.1 0.0
23/05:00pm 36.0 29.9 -7.2 6 19.7 NW 17 28 9 15 1011.1 1006.9 0.0
23/04:30pm 36.1 30.1 -7.1 6 19.7 WNW 17 26 9 14 1011.1 1006.9 0.0
23/04:00pm 36.1 30.8 -7.1 6 19.8 WNW 13 20 7 11 1011.3 1007.1 0.0
23/03:30pm 35.8 29.2 -7.3 6 19.6 NW 20 32 11 17 1011.4 1007.2 0.0
23/03:00pm 36.5 31.2 -6.8 6 20.0 WNW 13 24 7 13 1011.7 1007.5 0.0
23/02:30pm 35.3 28.6 -7.7 6 19.3 WNW 20 32 11 17 1012.0 1007.8 0.0
23/02:00pm 36.5 30.3 -4.8 7 19.6 NW 19 30 10 16 1012.5 1008.3 0.0
23/01:30pm 35.1 29.2 -5.8 7 18.9 NW 17 24 9 13 1012.8 1008.6 0.0
23/01:00pm 34.9 30.1 -6.0 7 18.9 W 11 22 6 12 1013.2 1009.0 0.0
23/12:30pm 34.5 29.9 -4.5 8 18.4 NW 11 22 6 12 1013.6 1009.4 0.0
23/12:00pm 33.8 29.1 -5.0 8 18.0 W 11 24 6 13 1014.1 1009.9 0.0
23/11:30am 32.4 26.6 -4.5 9 17.1 NE 17 26 9 14 1014.6 1010.4 0.0
23/11:00am 31.8 26.5 -3.5 10 16.6 NE 15 22 8 12 1014.9 1010.7 0.0
23/10:30am 31.9 27.0 -3.5 10 16.6 E 13 20 7 11 1015.1 1010.9 0.0
23/10:00am 30.8 25.6 -3.0 11 15.9 ESE 15 20 8 11 1015.5 1011.4 0.0
23/09:30am 30.3 25.3 -1.2 13 15.2 ESE 15 22 8 12 1015.7 1011.5 0.0
23/09:00am 29.3 23.6 -0.9 14 14.6 ESE 19 26 10 14 1015.7 1011.5 0.0
23/08:30am 28.9 23.3 -0.3 15 14.2 SE 19 28 10 15 1015.5 1011.4 0.0
23/08:00am 26.6 21.3 -0.4 17 12.9 SE 17 24 9 13 1015.8 1011.6 0.0
23/07:30am 25.6 20.3 -0.5 18 12.3 SSE 17 24 9 13 1015.7 1011.5 0.0
23/07:00am 24.1 19.5 -0.9 19 11.6 S 13 20 7 11 1015.5 1011.4 0.0
23/06:30am 22.6 18.8 -0.8 21 10.8 S 9 11 5 6 1015.3 1011.2 0.0
23/06:00am 20.3 16.8 -1.5 23 9.7 S 7 9 4 5 1015.1 1010.9 0.0
23/05:30am 18.2 14.8 -2.1 25 8.8 S 6 7 3 4 1014.9 1010.7 0.0
23/05:00am 20.1 15.3 -2.3 22 9.8 S 13 15 7 8 1014.6 1010.4 0.0
23/04:30am 20.3 15.5 -2.7 21 10.0 S 13 15 7 8 1014.4 1010.2 0.0
23/04:00am 20.8 15.9 -3.0 20 10.3 S 13 15 7 8 1014.2 1010.0 0.0
23/03:30am 20.9 16.4 -2.9 20 10.4 S 11 13 6 7 1014.1 1009.9 0.0
23/03:00am 21.3 16.4 -3.2 19 10.6 S 13 13 7 7 1014.1 1009.9 0.0
23/02:30am 21.6 16.7 -3.7 18 10.9 S 13 15 7 8 1014.1 1009.9 0.0
23/02:00am 22.5 17.9 -4.5 16 11.5 SSW 11 13 6 7 1014.0 1009.8 0.0
23/01:30am 23.3 18.2 -4.8 15 12.0 SSW 13 17 7 9 1014.2 1010.0 0.0
23/01:00am 23.6 18.8 -6.4 13 12.5 SSW 11 13 6 7 1014.4 1010.2 0.0
23/12:30am 24.2 19.3 -7.0 12 12.9 S 11 13 6 7 1014.6 1010.4 0.0
23/12:00am 25.3 20.0 -7.2 11 13.5 SSW 13 17 7 9 1014.7 1010.5 0.0
 
Date/Time
WST
Temp
°C
App
Temp
°C
Dew
Point
°C
Rel
Hum
%
Delta-T
°C
Wind Press
QNH
hPa
Press
MSL
hPa
Rain since
9am
mm
Dir  Spd
km/h
Gust
km/h
Spd
kts
Gust
kts
22/11:30pm 22.7 18.6 -7.1 13 12.1 SSW 7 11 4 6 1014.8 1010.6 0.0
22/11:00pm 24.3 21.5 -6.9 12 13.0 CALM 0 0 0 0 1015.0 1010.8 0.0
22/10:30pm 25.1 20.9 -7.4 11 13.5 WSW 7 11 4 6 1015.0 1010.8 0.0
22/10:00pm 24.5 19.5 -7.9 11 13.2 SW 11 13 6 7 1015.0 1010.8 0.0
22/09:30pm 25.8 21.2 -8.1 10 14.0 SSW 9 13 5 7 1015.0 1010.8 0.0
22/09:00pm 26.0 21.8 -7.9 10 14.0 SSW 7 9 4 5 1015.0 1010.8 0.0
22/08:30pm 26.0 21.8 -7.9 10 14.0 SSW 7 9 4 5 1014.7 1010.5 0.0
22/08:00pm 27.2 23.1 -8.4 9 14.8 WSW 6 7 3 4 1014.6 1010.4 0.0
22/07:30pm 28.1 23.9 -7.7 9 15.2 SW 7 9 4 5 1014.4 1010.2 0.0
22/07:00pm 29.4 25.2 -8.2 8 16.0 WSW 7 9 4 5 1014.2 1010.0 0.0
22/06:30pm 31.0 26.5 -7.1 8 16.7 WSW 9 13 5 7 1013.8 1009.6 0.0
22/06:00pm 32.9 26.4 -7.4 7 17.9 WSW 19 26 10 14 1013.4 1009.2 0.0
22/05:30pm 34.2 28.2 -6.5 7 18.5 WSW 17 24 9 13 1013.1 1008.9 0.0
22/05:00pm 34.3 27.8 -8.4 6 18.9 WSW 19 28 10 15 1012.9 1008.7 0.0
22/04:30pm 34.8 26.2 -8.0 6 19.1 WSW 30 39 16 21 1012.8 1008.6 0.0
22/04:00pm 35.7 29.1 -7.4 6 19.6 W 20 41 11 22 1012.7 1008.5 0.0
22/03:43pm 36.1 28.0 -7.1 6 19.7 WSW 28 48 15 26 1012.6 1008.4 0.0
22/03:30pm 35.5 28.5 -7.5 6 19.4 WSW 22 32 12 17 1012.8 1008.6 0.0
22/03:00pm 36.1 28.7 -7.1 6 19.8 WSW 24 46 13 25 1012.9 1008.7 0.0
22/02:31pm 35.4 27.4 -5.6 7 19.1 W 28 48 15 26 1013.4 1009.2 0.0
22/02:30pm 35.8 28.2 -5.3 7 19.3 W 26 48 14 26 1013.3 1009.1 0.0
22/02:18pm 35.1 26.9 -7.8 6 19.2 W 28 46 15 25 1013.4 1009.2 0.0
22/02:00pm 35.0 28.5 -5.9 7 18.9 W 20 35 11 19 1013.6 1009.4 0.0
22/01:30pm 35.0 28.7 -4.1 8 18.6 WSW 20 32 11 17 1014.2 1010.0 0.0
22/01:00pm 33.6 29.4 -3.6 9 17.7 W 9 20 5 11 1014.9 1010.7 0.0
22/12:30pm 33.2 27.5 -3.9 9 17.5 NW 17 30 9 16 1015.4 1011.3 0.0
22/12:00pm 32.4 27.4 -4.5 9 17.1 SSW 13 26 7 14 1016.2 1012.0 0.0
22/11:30am 31.8 26.5 -3.5 10 16.6 NNW 15 20 8 11 1016.6 1012.4 0.0
22/11:00am 30.9 26.8 -3.0 11 15.9 S 9 15 5 8 1017.0 1012.9 0.0
22/10:30am 30.1 26.7 -2.4 12 15.4 SW 6 11 3 6 1017.5 1013.3 0.0
22/10:00am 29.1 24.4 -2.1 13 14.7 ESE 13 24 7 13 1017.9 1013.7 0.0
22/09:30am 28.6 23.6 -1.5 14 14.3 SE 15 22 8 12 1018.1 1013.9 0.0
22/09:00am 27.3 21.9 -1.6 15 13.5 SSE 17 26 9 14 1018.2 1014.0 0.0
22/08:30am 26.9 21.2 -1.0 16 13.2 SSE 19 26 10 14 1018.2 1014.0 0.0
22/08:00am 25.5 19.6 -0.5 18 12.3 SSE 20 26 11 14 1018.0 1013.8 0.0
22/07:30am 25.1 18.8 -0.9 18 12.2 S 22 32 12 17 1017.8 1013.6 0.0
22/07:00am 24.0 18.3 -1.0 19 11.6 S 19 26 10 14 1017.6 1013.4 0.0
22/06:30am 22.7 18.4 -1.4 20 11.0 SSW 11 15 6 8 1017.2 1013.1 0.0
22/06:00am 21.2 17.7 -1.3 22 10.1 SSW 7 9 4 5 1016.8 1012.7 0.0
22/05:30am 20.7 16.0 -1.8 22 10.0 SSW 13 15 7 8 1016.3 1012.1 0.0
22/05:00am 20.9 15.8 -2.2 21 10.2 S 15 20 8 11 1016.0 1011.8 0.0
22/04:30am 21.1 17.5 -2.0 21 10.2 SSW 7 9 4 5 1016.0 1011.8 0.0
22/04:00am 21.8 16.7 -2.1 20 10.6 SSW 15 17 8 9 1015.5 1011.4 0.0
22/03:30am 21.9 17.2 -2.0 20 10.7 S 13 15 7 8 1015.4 1011.3 0.0
22/03:00am 22.9 18.1 -2.6 18 11.3 S 13 15 7 8 1015.2 1011.0 0.0
22/02:30am 23.4 18.5 -3.0 17 11.7 S 13 15 7 8 1015.3 1011.2 0.0
22/02:00am 24.2 19.4 -2.4 17 12.0 SSW 13 17 7 9 1015.2 1011.0 0.0
22/01:30am 24.8 19.6 -2.7 16 12.4 SSW 15 19 8 10 1015.2 1011.0 0.0
22/01:00am 25.2 19.9 -3.2 15 12.7 SSW 15 20 8 11 1015.3 1011.2 0.0
22/12:30am 25.8 20.5 -3.7 14 13.2 SSW 15 19 8 10 1015.7 1011.5 0.0
22/12:00am 26.2 20.8 -4.4 13 13.5 SSW 15 20 8 11 1015.7 1011.5 0.0
 
Date/Time
WST
Temp
°C
App
Temp
°C
Dew
Point
°C
Rel
Hum
%
Delta-T
°C
Wind Press
QNH
hPa
Press
MSL
hPa
Rain since
9am
mm
Dir  Spd
km/h
Gust
km/h
Spd
kts
Gust
kts
21/11:30pm 27.6 21.7 -5.5 11 14.5 SSW 17 26 9 14 1015.7 1011.5 0.0
21/11:00pm 26.0 20.6 -7.9 10 14.0 SW 13 17 7 9 1015.8 1011.6 0.0
21/10:30pm 26.1 22.1 -7.9 10 14.1 WSW 6 7 3 4 1015.7 1011.5 0.0
21/10:00pm 26.8 22.1 -8.7 9 14.6 WSW 9 11 5 6 1015.5 1011.4 0.0
21/09:30pm 27.5 22.9 -8.2 9 14.9 WSW 9 13 5 7 1015.2 1011.0 0.0
21/09:00pm 29.0 23.7 -7.0 9 15.6 WSW 13 17 7 9 1015.0 1010.8 0.0
21/08:30pm 29.2 24.3 -6.9 9 15.7 WSW 11 15 6 8 1014.8 1010.6 0.0
21/08:00pm 29.4 25.0 -5.4 10 15.5 WSW 9 11 5 6 1014.6 1010.4 0.0
21/07:30pm 30.7 26.3 -5.8 9 16.3 WSW 9 13 5 7 1014.1 1009.9 0.0
21/07:00pm 32.2 27.2 -4.6 9 17.0 WSW 13 17 7 9 1013.6 1009.4 0.0
21/06:30pm 32.9 27.7 -5.7 8 17.6 WSW 13 17 7 9 1013.2 1009.0 0.0
21/06:00pm 34.4 29.0 -4.6 8 18.3 W 15 20 8 11 1012.9 1008.7 0.0
21/05:30pm 35.5 29.6 -5.5 7 19.1 W 17 26 9 14 1012.7 1008.5 0.0
21/05:00pm 36.5 29.2 -6.8 6 20.0 W 24 33 13 18 1012.5 1008.3 0.0
21/04:30pm 36.4 30.8 -6.9 6 19.9 WNW 15 24 8 13 1012.4 1008.1 0.0
21/04:11pm 37.6 30.0 -6.0 6 20.5 WNW 26 43 14 23 1012.3 1008.0 0.0
21/04:00pm 37.0 31.0 -6.5 6 20.2 W 17 24 9 13 1012.3 1008.0 0.0
21/03:30pm 37.7 32.0 -3.9 7 20.2 NW 17 35 9 19 1012.3 1008.0 0.0
21/03:00pm 36.8 30.1 -4.6 7 19.8 W 22 35 12 19 1012.5 1008.3 0.0
21/02:30pm 36.6 30.8 -4.7 7 19.7 WNW 17 28 9 15 1012.9 1008.7 0.0
21/02:00pm 36.3 31.4 -3.2 8 19.2 W 13 30 7 16 1013.2 1009.0 0.0
21/01:30pm 37.1 31.0 -2.6 8 19.6 WNW 20 43 11 23 1013.6 1009.4 0.0
21/01:00pm 36.0 28.6 -3.4 8 19.1 W 26 43 14 23 1014.3 1010.1 0.0
21/12:30pm 35.5 29.2 -3.8 8 18.8 WNW 20 33 11 18 1014.6 1010.4 0.0
21/12:00pm 35.5 28.1 -3.8 8 18.8 W 26 41 14 22 1015.1 1010.9 0.0
21/11:30am 34.5 29.1 -1.5 10 17.8 WSW 17 30 9 16 1015.8 1011.6 0.0
21/11:00am 34.6 30.9 -0.1 11 17.5 W 9 26 5 14 1016.3 1012.1 0.0
21/10:30am 33.8 29.2 -0.7 11 17.2 WNW 13 30 7 16 1016.6 1012.4 0.0
21/10:00am 32.7 28.9 -0.4 12 16.4 NNW 9 20 5 11 1017.1 1013.0 0.0
21/09:30am 31.4 27.1 -1.4 12 15.9 SSW 11 19 6 10 1017.4 1013.2 0.0
21/09:00am 30.5 26.7 -1.0 13 15.3 SW 9 17 5 9 1017.5 1013.3 0.0
21/08:30am 29.9 26.1 -0.5 14 14.8 SSW 9 17 5 9 1017.6 1013.4 0.0
21/08:00am 28.3 23.7 -0.8 15 13.9 WSW 13 17 7 9 1017.5 1013.3 0.0
21/07:30am 26.9 22.3 1.3 19 12.6 W 15 17 8 9 1017.2 1013.1 0.0
21/07:00am 25.1 21.0 2.5 23 11.2 W 13 19 7 10 1017.1 1013.0 0.0
21/06:30am 23.4 19.4 2.8 26 10.2 W 13 17 7 9 1016.9 1012.8 0.0
21/06:00am 22.1 18.5 2.8 28 9.5 W 11 15 6 8 1016.6 1012.4 0.0
21/05:30am 22.0 18.8 3.2 29 9.3 WSW 9 13 5 7 1016.4 1012.2 0.0
21/05:00am 21.5 18.7 3.2 30 9.0 SW 7 11 4 6 1016.0 1011.8 0.0
21/04:30am 21.6 19.5 3.8 31 8.9 WNW 4 9 2 5 1015.8 1011.6 0.0

Other Formats:

Comma delimited format used in spreadsheet applications
http://www.bom.gov.au/fwo/IDW60801/IDW60801.99313.axf

JavaScript Object Notation format (JSON) in row-major order
http://www.bom.gov.au/fwo/IDW60801/IDW60801.99313.json